Kezdőlap
METAR-TAF:

METAR-TAF

Repülőterek :

Lappeenranta, Finnország

földrajzi szélesség: 61-02-45N, földrajzi hosszúság: 028-08-55E, magasság: 106 m

Jelenlegi meteorológiai megfigyelések

A jelentés 11 perccel ezelõtt készült, 02:50 UTC
Kelet-délkeleti szél 3 kt
Hőmérséklet 1°C
Páratartalom 86%
Légköri nyomás 1033 hPa
Látótávolság 10 km, vagy több
Borult 2300 lábon

METAR: EFLP 220250Z AUTO 12003KT 9999 OVC023 01/M01 Q1033

Idő: 05:01 (03:01 UTC)

Előrejelzés

A jelentés 37 perccel ezelõtt készült, 02:24 UTC
Az előrejelzés 22-én 03 óra UTC és 22-én 11 óra UTC között érvényes
Délkeleti szél 7 kt
Látótávolság 10 km, vagy több
Szakadozott felhőzet 1800 lábon
22-én 03 óra UTC és 22-én 11 óra UTC között ideiglenes
Szakadozott felhőzet 1400 lábon

TAF: EFLP 220224Z 2203/2211 14007KT 9999 BKN018 TEMPO 2203/2211 BKN014

Meteorológiai megfigyelések és előrejelzések több, mint 4000 repülőtéren (METAR és TAF jelentéseket).

A térképen piros és sárga pontok jelzik az elérhető meteorológiai állomásokat.

Mozgassa az egeret a pont fölött, hogy megjelenjen az állomás neve.

Azután kattintson az időjárási megfigyelések és előrejelzések megtekintéséhez.

A térkép megváltoztatása: kattintson a fekete keresztel jelölt zöld gombra ráközelítéshez, a vonallal jelölt zöld gombra távolításhoz, vagy a zöld nyilakra a szomszédos térképek eléréséhez.


METAR-TAF: